sensor_id;sensor_type;location;lat;lon;timestamp;P1;durP1;ratioP1;P2;durP2;ratioP2
37655;SDS011;23498;50.958;3.124;2023-05-25T00:01:38;15.23;;;6.00;;
37655;SDS011;23498;50.958;3.124;2023-05-25T00:04:07;20.55;;;6.00;;
37655;SDS011;23498;50.958;3.124;2023-05-25T00:06:34;15.65;;;6.03;;
37655;SDS011;23498;50.958;3.124;2023-05-25T00:09:05;18.93;;;6.20;;
37655;SDS011;23498;50.958;3.124;2023-05-25T00:11:31;16.73;;;6.20;;
37655;SDS011;23498;50.958;3.124;2023-05-25T00:13:57;16.20;;;5.72;;
37655;SDS011;23498;50.958;3.124;2023-05-25T00:16:23;18.33;;;6.15;;
37655;SDS011;23498;50.958;3.124;2023-05-25T00:18:49;22.77;;;6.40;;
37655;SDS011;23498;50.958;3.124;2023-05-25T00:21:17;16.17;;;6.22;;
37655;SDS011;23498;50.958;3.124;2023-05-25T00:23:44;18.73;;;6.97;;
37655;SDS011;23498;50.958;3.124;2023-05-25T00:26:10;16.55;;;6.35;;
37655;SDS011;23498;50.958;3.124;2023-05-25T00:28:36;16.98;;;7.07;;
37655;SDS011;23498;50.958;3.124;2023-05-25T00:31:02;21.23;;;6.97;;
37655;SDS011;23498;50.958;3.124;2023-05-25T00:33:28;19.05;;;7.13;;
37655;SDS011;23498;50.958;3.124;2023-05-25T00:35:54;20.75;;;7.47;;
37655;SDS011;23498;50.958;3.124;2023-05-25T00:38:21;18.92;;;7.07;;
37655;SDS011;23498;50.958;3.124;2023-05-25T00:40:47;20.17;;;7.28;;
37655;SDS011;23498;50.958;3.124;2023-05-25T00:43:13;17.45;;;7.05;;
37655;SDS011;23498;50.958;3.124;2023-05-25T00:45:39;17.20;;;7.30;;
37655;SDS011;23498;50.958;3.124;2023-05-25T00:48:05;23.33;;;8.48;;
37655;SDS011;23498;50.958;3.124;2023-05-25T00:50:42;18.73;;;7.50;;
37655;SDS011;23498;50.958;3.124;2023-05-25T00:53:10;25.17;;;8.73;;
37655;SDS011;23498;50.958;3.124;2023-05-25T00:58:06;20.15;;;7.90;;
37655;SDS011;23498;50.958;3.124;2023-05-25T01:00:33;19.98;;;8.73;;
37655;SDS011;23498;50.958;3.124;2023-05-25T01:03:07;17.50;;;7.82;;
37655;SDS011;23498;50.958;3.124;2023-05-25T01:05:36;19.63;;;8.35;;
37655;SDS011;23498;50.958;3.124;2023-05-25T01:08:03;21.25;;;7.75;;
37655;SDS011;23498;50.958;3.124;2023-05-25T01:10:30;19.73;;;8.25;;
37655;SDS011;23498;50.958;3.124;2023-05-25T01:12:57;22.20;;;8.13;;
37655;SDS011;23498;50.958;3.124;2023-05-25T01:15:24;20.17;;;8.35;;
37655;SDS011;23498;50.958;3.124;2023-05-25T01:17:50;22.27;;;9.18;;
37655;SDS011;23498;50.958;3.124;2023-05-25T01:20:18;18.15;;;8.18;;
37655;SDS011;23498;50.958;3.124;2023-05-25T01:22:46;21.55;;;8.60;;
37655;SDS011;23498;50.958;3.124;2023-05-25T01:25:15;23.00;;;8.65;;
37655;SDS011;23498;50.958;3.124;2023-05-25T01:27:47;22.00;;;8.55;;
37655;SDS011;23498;50.958;3.124;2023-05-25T01:30:14;22.55;;;8.80;;
37655;SDS011;23498;50.958;3.124;2023-05-25T01:32:41;25.58;;;9.55;;
37655;SDS011;23498;50.958;3.124;2023-05-25T01:35:07;24.27;;;9.38;;
37655;SDS011;23498;50.958;3.124;2023-05-25T01:37:34;19.88;;;8.85;;
37655;SDS011;23498;50.958;3.124;2023-05-25T01:40:02;30.70;;;9.60;;
37655;SDS011;23498;50.958;3.124;2023-05-25T01:42:29;21.73;;;8.98;;
37655;SDS011;23498;50.958;3.124;2023-05-25T01:44:55;20.50;;;9.13;;
37655;SDS011;23498;50.958;3.124;2023-05-25T01:47:27;22.48;;;9.70;;
37655;SDS011;23498;50.958;3.124;2023-05-25T01:49:59;24.85;;;9.65;;
37655;SDS011;23498;50.958;3.124;2023-05-25T01:52:27;26.30;;;10.18;;
37655;SDS011;23498;50.958;3.124;2023-05-25T01:55:05;21.67;;;9.00;;
37655;SDS011;23498;50.958;3.124;2023-05-25T01:57:34;26.00;;;9.82;;
37655;SDS011;23498;50.958;3.124;2023-05-25T02:00:00;25.02;;;9.02;;
37655;SDS011;23498;50.958;3.124;2023-05-25T02:02:27;23.75;;;9.40;;
37655;SDS011;23498;50.958;3.124;2023-05-25T02:04:53;21.95;;;9.40;;
37655;SDS011;23498;50.958;3.124;2023-05-25T02:07:21;23.13;;;10.07;;
37655;SDS011;23498;50.958;3.124;2023-05-25T02:09:47;21.95;;;9.48;;
37655;SDS011;23498;50.958;3.124;2023-05-25T02:12:13;20.50;;;9.43;;
37655;SDS011;23498;50.958;3.124;2023-05-25T02:14:39;21.58;;;9.95;;
37655;SDS011;23498;50.958;3.124;2023-05-25T02:17:05;20.98;;;9.32;;
37655;SDS011;23498;50.958;3.124;2023-05-25T02:19:31;21.63;;;10.25;;
37655;SDS011;23498;50.958;3.124;2023-05-25T02:21:57;26.70;;;9.68;;
37655;SDS011;23498;50.958;3.124;2023-05-25T02:24:23;21.50;;;9.02;;
37655;SDS011;23498;50.958;3.124;2023-05-25T02:26:49;24.92;;;9.85;;
37655;SDS011;23498;50.958;3.124;2023-05-25T02:29:15;27.08;;;10.23;;
37655;SDS011;23498;50.958;3.124;2023-05-25T02:31:41;19.67;;;10.32;;
37655;SDS011;23498;50.958;3.124;2023-05-25T02:34:07;20.52;;;9.70;;
37655;SDS011;23498;50.958;3.124;2023-05-25T02:36:33;20.35;;;9.98;;
37655;SDS011;23498;50.958;3.124;2023-05-25T02:39:00;22.05;;;9.38;;
37655;SDS011;23498;50.958;3.124;2023-05-25T02:41:26;23.25;;;9.05;;
37655;SDS011;23498;50.958;3.124;2023-05-25T02:43:52;20.77;;;9.50;;
37655;SDS011;23498;50.958;3.124;2023-05-25T02:46:18;25.25;;;9.73;;
37655;SDS011;23498;50.958;3.124;2023-05-25T02:48:45;20.50;;;9.85;;
37655;SDS011;23498;50.958;3.124;2023-05-25T02:51:11;23.67;;;10.57;;
37655;SDS011;23498;50.958;3.124;2023-05-25T02:53:37;24.27;;;9.43;;
37655;SDS011;23498;50.958;3.124;2023-05-25T02:56:03;26.27;;;10.05;;
37655;SDS011;23498;50.958;3.124;2023-05-25T02:58:30;29.50;;;10.15;;
37655;SDS011;23498;50.958;3.124;2023-05-25T03:00:56;25.30;;;10.68;;
37655;SDS011;23498;50.958;3.124;2023-05-25T03:03:25;23.60;;;9.90;;
37655;SDS011;23498;50.958;3.124;2023-05-25T03:05:51;22.92;;;10.40;;
37655;SDS011;23498;50.958;3.124;2023-05-25T03:08:17;21.65;;;9.05;;
37655;SDS011;23498;50.958;3.124;2023-05-25T03:10:44;28.67;;;10.52;;
37655;SDS011;23498;50.958;3.124;2023-05-25T03:13:10;24.58;;;10.30;;
37655;SDS011;23498;50.958;3.124;2023-05-25T03:15:36;23.02;;;9.32;;
37655;SDS011;23498;50.958;3.124;2023-05-25T03:18:04;22.85;;;9.90;;
37655;SDS011;23498;50.958;3.124;2023-05-25T03:20:30;23.05;;;10.05;;
37655;SDS011;23498;50.958;3.124;2023-05-25T03:22:57;24.15;;;10.13;;
37655;SDS011;23498;50.958;3.124;2023-05-25T03:25:23;24.42;;;10.10;;
37655;SDS011;23498;50.958;3.124;2023-05-25T03:27:53;20.50;;;9.68;;
37655;SDS011;23498;50.958;3.124;2023-05-25T03:30:20;22.20;;;9.90;;
37655;SDS011;23498;50.958;3.124;2023-05-25T03:32:46;24.25;;;9.88;;
37655;SDS011;23498;50.958;3.124;2023-05-25T03:35:12;25.10;;;9.73;;
37655;SDS011;23498;50.958;3.124;2023-05-25T03:37:38;23.50;;;10.35;;
37655;SDS011;23498;50.958;3.124;2023-05-25T03:40:05;21.38;;;10.40;;
37655;SDS011;23498;50.958;3.124;2023-05-25T03:42:31;28.90;;;10.63;;
37655;SDS011;23498;50.958;3.124;2023-05-25T03:44:57;26.67;;;10.35;;
37655;SDS011;23498;50.958;3.124;2023-05-25T03:47:23;27.30;;;10.43;;
37655;SDS011;23498;50.958;3.124;2023-05-25T03:49:49;24.67;;;10.15;;
37655;SDS011;23498;50.958;3.124;2023-05-25T03:52:15;20.27;;;9.82;;
37655;SDS011;23498;50.958;3.124;2023-05-25T03:54:41;25.23;;;10.25;;
37655;SDS011;23498;50.958;3.124;2023-05-25T03:57:06;21.92;;;9.55;;
37655;SDS011;23498;50.958;3.124;2023-05-25T03:59:32;19.20;;;9.32;;
37655;SDS011;23498;50.958;3.124;2023-05-25T04:01:58;21.27;;;9.50;;
37655;SDS011;23498;50.958;3.124;2023-05-25T04:04:24;23.48;;;9.02;;
37655;SDS011;23498;50.958;3.124;2023-05-25T04:06:52;18.38;;;8.93;;
37655;SDS011;23498;50.958;3.124;2023-05-25T04:09:18;20.05;;;8.57;;
37655;SDS011;23498;50.958;3.124;2023-05-25T04:11:44;18.48;;;9.40;;
37655;SDS011;23498;50.958;3.124;2023-05-25T04:14:10;24.23;;;9.93;;
37655;SDS011;23498;50.958;3.124;2023-05-25T04:16:36;19.35;;;8.85;;
37655;SDS011;23498;50.958;3.124;2023-05-25T04:19:05;22.13;;;9.18;;
37655;SDS011;23498;50.958;3.124;2023-05-25T04:21:31;20.08;;;9.38;;
37655;SDS011;23498;50.958;3.124;2023-05-25T04:23:57;22.48;;;9.30;;
37655;SDS011;23498;50.958;3.124;2023-05-25T04:26:23;20.63;;;8.02;;
37655;SDS011;23498;50.958;3.124;2023-05-25T04:28:53;20.08;;;9.20;;
37655;SDS011;23498;50.958;3.124;2023-05-25T04:31:20;22.45;;;9.48;;
37655;SDS011;23498;50.958;3.124;2023-05-25T04:33:46;19.45;;;9.15;;
37655;SDS011;23498;50.958;3.124;2023-05-25T04:36:13;21.42;;;9.02;;
37655;SDS011;23498;50.958;3.124;2023-05-25T04:38:39;21.75;;;9.43;;
37655;SDS011;23498;50.958;3.124;2023-05-25T04:41:06;23.67;;;9.52;;
37655;SDS011;23498;50.958;3.124;2023-05-25T04:43:33;21.42;;;8.88;;
37655;SDS011;23498;50.958;3.124;2023-05-25T04:45:58;23.48;;;9.10;;
37655;SDS011;23498;50.958;3.124;2023-05-25T04:48:25;19.52;;;9.15;;
37655;SDS011;23498;50.958;3.124;2023-05-25T04:50:56;22.50;;;8.82;;
37655;SDS011;23498;50.958;3.124;2023-05-25T04:53:26;24.08;;;9.15;;
37655;SDS011;23498;50.958;3.124;2023-05-25T04:55:52;25.95;;;9.63;;
37655;SDS011;23498;50.958;3.124;2023-05-25T04:58:19;18.15;;;8.85;;
37655;SDS011;23498;50.958;3.124;2023-05-25T05:00:45;24.48;;;9.52;;
37655;SDS011;23498;50.958;3.124;2023-05-25T05:03:11;22.05;;;8.90;;
37655;SDS011;23498;50.958;3.124;2023-05-25T05:05:37;19.20;;;9.07;;
37655;SDS011;23498;50.958;3.124;2023-05-25T05:08:04;22.50;;;9.35;;
37655;SDS011;23498;50.958;3.124;2023-05-25T05:10:30;22.48;;;9.50;;
37655;SDS011;23498;50.958;3.124;2023-05-25T05:12:56;21.80;;;8.88;;
37655;SDS011;23498;50.958;3.124;2023-05-25T05:15:22;23.42;;;8.88;;
37655;SDS011;23498;50.958;3.124;2023-05-25T05:17:48;20.10;;;9.20;;
37655;SDS011;23498;50.958;3.124;2023-05-25T05:20:14;21.67;;;8.63;;
37655;SDS011;23498;50.958;3.124;2023-05-25T05:22:40;18.77;;;9.48;;
37655;SDS011;23498;50.958;3.124;2023-05-25T05:25:06;23.00;;;9.43;;
37655;SDS011;23498;50.958;3.124;2023-05-25T05:27:33;20.00;;;8.90;;
37655;SDS011;23498;50.958;3.124;2023-05-25T05:29:59;21.90;;;9.20;;
37655;SDS011;23498;50.958;3.124;2023-05-25T05:32:25;24.88;;;9.15;;
37655;SDS011;23498;50.958;3.124;2023-05-25T05:34:51;25.05;;;9.82;;
37655;SDS011;23498;50.958;3.124;2023-05-25T05:37:17;18.70;;;8.38;;
37655;SDS011;23498;50.958;3.124;2023-05-25T05:39:43;26.70;;;9.55;;
37655;SDS011;23498;50.958;3.124;2023-05-25T05:42:09;18.52;;;9.00;;
37655;SDS011;23498;50.958;3.124;2023-05-25T05:44:35;23.38;;;9.40;;
37655;SDS011;23498;50.958;3.124;2023-05-25T05:47:01;18.38;;;8.85;;
37655;SDS011;23498;50.958;3.124;2023-05-25T05:49:30;26.67;;;9.32;;
37655;SDS011;23498;50.958;3.124;2023-05-25T05:51:56;23.13;;;9.35;;
37655;SDS011;23498;50.958;3.124;2023-05-25T05:54:23;25.08;;;9.52;;
37655;SDS011;23498;50.958;3.124;2023-05-25T05:56:49;26.92;;;8.77;;
37655;SDS011;23498;50.958;3.124;2023-05-25T05:59:15;21.25;;;9.25;;
37655;SDS011;23498;50.958;3.124;2023-05-25T06:01:41;19.08;;;8.10;;
37655;SDS011;23498;50.958;3.124;2023-05-25T06:04:08;24.58;;;8.88;;
37655;SDS011;23498;50.958;3.124;2023-05-25T06:06:34;25.63;;;8.77;;
37655;SDS011;23498;50.958;3.124;2023-05-25T06:09:01;19.30;;;8.52;;
37655;SDS011;23498;50.958;3.124;2023-05-25T06:11:29;15.13;;;7.97;;
37655;SDS011;23498;50.958;3.124;2023-05-25T06:13:55;20.45;;;8.60;;
37655;SDS011;23498;50.958;3.124;2023-05-25T06:16:21;14.23;;;8.27;;
37655;SDS011;23498;50.958;3.124;2023-05-25T06:18:47;16.55;;;8.32;;
37655;SDS011;23498;50.958;3.124;2023-05-25T06:21:13;19.20;;;8.52;;
37655;SDS011;23498;50.958;3.124;2023-05-25T06:23:39;20.85;;;8.73;;
37655;SDS011;23498;50.958;3.124;2023-05-25T06:26:05;19.23;;;8.75;;
37655;SDS011;23498;50.958;3.124;2023-05-25T06:28:31;20.55;;;8.40;;
37655;SDS011;23498;50.958;3.124;2023-05-25T06:30:57;25.35;;;10.02;;
37655;SDS011;23498;50.958;3.124;2023-05-25T06:33:23;20.17;;;9.68;;
37655;SDS011;23498;50.958;3.124;2023-05-25T06:35:50;25.02;;;10.15;;
37655;SDS011;23498;50.958;3.124;2023-05-25T06:38:16;16.20;;;9.23;;
37655;SDS011;23498;50.958;3.124;2023-05-25T06:40:42;20.17;;;9.60;;
37655;SDS011;23498;50.958;3.124;2023-05-25T06:43:08;25.52;;;11.02;;
37655;SDS011;23498;50.958;3.124;2023-05-25T06:45:34;15.13;;;8.52;;
37655;SDS011;23498;50.958;3.124;2023-05-25T06:48:00;15.85;;;7.55;;
37655;SDS011;23498;50.958;3.124;2023-05-25T06:50:26;12.10;;;6.20;;
37655;SDS011;23498;50.958;3.124;2023-05-25T06:52:52;11.70;;;6.05;;
37655;SDS011;23498;50.958;3.124;2023-05-25T06:55:18;16.35;;;6.63;;
37655;SDS011;23498;50.958;3.124;2023-05-25T06:57:44;13.75;;;6.40;;
37655;SDS011;23498;50.958;3.124;2023-05-25T07:00:10;17.40;;;6.97;;
37655;SDS011;23498;50.958;3.124;2023-05-25T07:02:37;16.40;;;6.07;;
37655;SDS011;23498;50.958;3.124;2023-05-25T07:05:03;12.10;;;6.03;;
37655;SDS011;23498;50.958;3.124;2023-05-25T07:07:29;15.73;;;5.95;;
37655;SDS011;23498;50.958;3.124;2023-05-25T07:09:55;14.60;;;6.50;;
37655;SDS011;23498;50.958;3.124;2023-05-25T07:12:21;14.13;;;6.20;;
37655;SDS011;23498;50.958;3.124;2023-05-25T07:14:48;15.93;;;6.10;;
37655;SDS011;23498;50.958;3.124;2023-05-25T07:17:14;16.13;;;6.65;;
37655;SDS011;23498;50.958;3.124;2023-05-25T07:19:40;17.80;;;6.45;;
37655;SDS011;23498;50.958;3.124;2023-05-25T07:22:07;15.35;;;6.25;;
37655;SDS011;23498;50.958;3.124;2023-05-25T07:24:34;20.33;;;7.15;;
37655;SDS011;23498;50.958;3.124;2023-05-25T07:27:00;12.98;;;6.05;;
37655;SDS011;23498;50.958;3.124;2023-05-25T07:29:27;12.88;;;6.15;;
37655;SDS011;23498;50.958;3.124;2023-05-25T07:31:53;13.48;;;6.20;;
37655;SDS011;23498;50.958;3.124;2023-05-25T07:34:19;14.93;;;6.30;;
37655;SDS011;23498;50.958;3.124;2023-05-25T07:36:45;12.38;;;5.50;;
37655;SDS011;23498;50.958;3.124;2023-05-25T07:39:11;11.23;;;5.65;;
37655;SDS011;23498;50.958;3.124;2023-05-25T07:41:38;17.00;;;5.72;;
37655;SDS011;23498;50.958;3.124;2023-05-25T07:44:04;12.57;;;5.22;;
37655;SDS011;23498;50.958;3.124;2023-05-25T07:46:30;13.60;;;5.70;;
37655;SDS011;23498;50.958;3.124;2023-05-25T07:48:56;13.93;;;5.90;;
37655;SDS011;23498;50.958;3.124;2023-05-25T07:51:23;11.80;;;5.82;;
37655;SDS011;23498;50.958;3.124;2023-05-25T07:53:52;12.48;;;5.25;;
37655;SDS011;23498;50.958;3.124;2023-05-25T07:56:20;12.57;;;5.45;;
37655;SDS011;23498;50.958;3.124;2023-05-25T07:58:47;11.32;;;6.03;;
37655;SDS011;23498;50.958;3.124;2023-05-25T08:01:13;10.38;;;5.38;;
37655;SDS011;23498;50.958;3.124;2023-05-25T08:03:40;11.55;;;5.50;;
37655;SDS011;23498;50.958;3.124;2023-05-25T08:06:09;13.05;;;5.10;;
37655;SDS011;23498;50.958;3.124;2023-05-25T08:08:35;16.10;;;5.13;;
37655;SDS011;23498;50.958;3.124;2023-05-25T08:11:01;12.60;;;4.88;;
37655;SDS011;23498;50.958;3.124;2023-05-25T08:13:27;12.35;;;4.97;;
37655;SDS011;23498;50.958;3.124;2023-05-25T08:15:53;13.52;;;4.82;;
37655;SDS011;23498;50.958;3.124;2023-05-25T08:18:23;7.68;;;5.03;;
37655;SDS011;23498;50.958;3.124;2023-05-25T08:20:49;15.18;;;5.28;;
37655;SDS011;23498;50.958;3.124;2023-05-25T08:23:15;10.82;;;4.95;;
37655;SDS011;23498;50.958;3.124;2023-05-25T08:25:43;8.00;;;3.60;;
37655;SDS011;23498;50.958;3.124;2023-05-25T08:28:09;8.75;;;3.92;;
37655;SDS011;23498;50.958;3.124;2023-05-25T08:30:35;10.45;;;4.63;;
37655;SDS011;23498;50.958;3.124;2023-05-25T08:33:01;9.40;;;4.55;;
37655;SDS011;23498;50.958;3.124;2023-05-25T08:35:27;12.15;;;4.95;;
37655;SDS011;23498;50.958;3.124;2023-05-25T08:37:53;10.77;;;4.85;;
37655;SDS011;23498;50.958;3.124;2023-05-25T08:40:21;12.55;;;4.97;;
37655;SDS011;23498;50.958;3.124;2023-05-25T08:42:47;11.75;;;4.90;;
37655;SDS011;23498;50.958;3.124;2023-05-25T08:45:13;9.00;;;5.10;;
37655;SDS011;23498;50.958;3.124;2023-05-25T08:47:40;9.32;;;4.65;;
37655;SDS011;23498;50.958;3.124;2023-05-25T08:50:07;11.77;;;4.90;;
37655;SDS011;23498;50.958;3.124;2023-05-25T08:52:33;9.45;;;4.40;;
37655;SDS011;23498;50.958;3.124;2023-05-25T08:55:02;9.90;;;4.68;;
37655;SDS011;23498;50.958;3.124;2023-05-25T08:57:31;8.60;;;5.00;;
37655;SDS011;23498;50.958;3.124;2023-05-25T09:00:04;9.57;;;4.65;;
37655;SDS011;23498;50.958;3.124;2023-05-25T09:02:49;7.88;;;4.25;;
37655;SDS011;23498;50.958;3.124;2023-05-25T09:05:19;11.50;;;4.35;;
37655;SDS011;23498;50.958;3.124;2023-05-25T09:07:45;7.82;;;4.05;;
37655;SDS011;23498;50.958;3.124;2023-05-25T09:10:11;10.30;;;4.63;;
37655;SDS011;23498;50.958;3.124;2023-05-25T09:12:38;7.20;;;4.07;;
37655;SDS011;23498;50.958;3.124;2023-05-25T09:15:04;10.43;;;3.67;;
37655;SDS011;23498;50.958;3.124;2023-05-25T09:17:30;8.02;;;3.65;;
37655;SDS011;23498;50.958;3.124;2023-05-25T09:19:56;7.35;;;3.90;;
37655;SDS011;23498;50.958;3.124;2023-05-25T09:22:23;10.27;;;6.00;;
37655;SDS011;23498;50.958;3.124;2023-05-25T09:24:49;9.02;;;4.45;;
37655;SDS011;23498;50.958;3.124;2023-05-25T09:27:17;6.13;;;3.88;;
37655;SDS011;23498;50.958;3.124;2023-05-25T09:29:47;8.40;;;3.92;;
37655;SDS011;23498;50.958;3.124;2023-05-25T09:32:14;9.85;;;4.10;;
37655;SDS011;23498;50.958;3.124;2023-05-25T09:34:41;6.65;;;3.88;;
37655;SDS011;23498;50.958;3.124;2023-05-25T09:37:11;6.75;;;3.97;;
37655;SDS011;23498;50.958;3.124;2023-05-25T09:39:38;6.55;;;4.03;;
37655;SDS011;23498;50.958;3.124;2023-05-25T09:42:05;7.70;;;3.80;;
37655;SDS011;23498;50.958;3.124;2023-05-25T09:44:31;8.15;;;4.15;;
37655;SDS011;23498;50.958;3.124;2023-05-25T09:46:57;8.95;;;4.45;;
37655;SDS011;23498;50.958;3.124;2023-05-25T09:49:23;5.65;;;3.53;;
37655;SDS011;23498;50.958;3.124;2023-05-25T09:51:50;6.82;;;4.22;;
37655;SDS011;23498;50.958;3.124;2023-05-25T09:54:17;6.75;;;4.22;;
37655;SDS011;23498;50.958;3.124;2023-05-25T09:56:43;7.13;;;3.80;;
37655;SDS011;23498;50.958;3.124;2023-05-25T09:59:10;7.97;;;3.70;;
37655;SDS011;23498;50.958;3.124;2023-05-25T10:01:36;7.20;;;3.88;;
37655;SDS011;23498;50.958;3.124;2023-05-25T10:04:02;7.03;;;4.30;;
37655;SDS011;23498;50.958;3.124;2023-05-25T10:06:29;7.97;;;4.38;;
37655;SDS011;23498;50.958;3.124;2023-05-25T10:08:57;7.03;;;3.80;;
37655;SDS011;23498;50.958;3.124;2023-05-25T10:11:24;5.43;;;3.42;;
37655;SDS011;23498;50.958;3.124;2023-05-25T10:13:53;5.70;;;3.58;;
37655;SDS011;23498;50.958;3.124;2023-05-25T10:16:24;5.85;;;3.17;;
37655;SDS011;23498;50.958;3.124;2023-05-25T10:22:15;8.45;;;3.97;;
37655;SDS011;23498;50.958;3.124;2023-05-25T10:27:21;6.32;;;3.40;;
37655;SDS011;23498;50.958;3.124;2023-05-25T10:29:48;5.80;;;3.70;;
37655;SDS011;23498;50.958;3.124;2023-05-25T10:32:15;7.90;;;4.00;;
37655;SDS011;23498;50.958;3.124;2023-05-25T10:34:41;6.47;;;3.90;;
37655;SDS011;23498;50.958;3.124;2023-05-25T10:37:07;7.28;;;3.40;;
37655;SDS011;23498;50.958;3.124;2023-05-25T10:39:35;6.53;;;3.42;;
37655;SDS011;23498;50.958;3.124;2023-05-25T10:42:01;7.05;;;3.22;;
37655;SDS011;23498;50.958;3.124;2023-05-25T10:44:29;8.20;;;4.22;;
37655;SDS011;23498;50.958;3.124;2023-05-25T10:46:56;5.70;;;3.90;;
37655;SDS011;23498;50.958;3.124;2023-05-25T10:49:29;6.50;;;4.05;;
37655;SDS011;23498;50.958;3.124;2023-05-25T10:51:57;6.28;;;3.45;;
37655;SDS011;23498;50.958;3.124;2023-05-25T10:54:27;5.72;;;3.45;;
37655;SDS011;23498;50.958;3.124;2023-05-25T11:00:03;7.07;;;3.53;;
37655;SDS011;23498;50.958;3.124;2023-05-25T11:02:49;6.43;;;4.00;;
37655;SDS011;23498;50.958;3.124;2023-05-25T11:07:52;7.82;;;4.00;;
37655;SDS011;23498;50.958;3.124;2023-05-25T11:10:40;6.00;;;3.45;;
37655;SDS011;23498;50.958;3.124;2023-05-25T11:13:38;8.52;;;3.97;;
37655;SDS011;23498;50.958;3.124;2023-05-25T11:16:07;6.68;;;3.38;;
37655;SDS011;23498;50.958;3.124;2023-05-25T11:18:40;7.45;;;4.00;;
37655;SDS011;23498;50.958;3.124;2023-05-25T11:21:11;7.53;;;4.13;;
37655;SDS011;23498;50.958;3.124;2023-05-25T11:23:38;7.30;;;4.40;;
37655;SDS011;23498;50.958;3.124;2023-05-25T11:26:04;8.20;;;4.03;;
37655;SDS011;23498;50.958;3.124;2023-05-25T11:28:31;8.10;;;4.20;;
37655;SDS011;23498;50.958;3.124;2023-05-25T11:30:57;5.65;;;3.42;;
37655;SDS011;23498;50.958;3.124;2023-05-25T11:33:26;6.85;;;4.03;;
37655;SDS011;23498;50.958;3.124;2023-05-25T11:35:52;7.25;;;3.83;;
37655;SDS011;23498;50.958;3.124;2023-05-25T11:38:19;7.82;;;3.83;;
37655;SDS011;23498;50.958;3.124;2023-05-25T11:40:49;6.53;;;4.25;;
37655;SDS011;23498;50.958;3.124;2023-05-25T11:43:15;8.25;;;4.43;;
37655;SDS011;23498;50.958;3.124;2023-05-25T11:45:42;7.22;;;3.80;;
37655;SDS011;23498;50.958;3.124;2023-05-25T11:48:11;7.45;;;4.05;;
37655;SDS011;23498;50.958;3.124;2023-05-25T11:50:38;8.63;;;4.72;;
37655;SDS011;23498;50.958;3.124;2023-05-25T11:53:04;7.00;;;4.10;;
37655;SDS011;23498;50.958;3.124;2023-05-25T11:55:31;5.93;;;3.75;;
37655;SDS011;23498;50.958;3.124;2023-05-25T11:57:57;6.15;;;3.50;;
37655;SDS011;23498;50.958;3.124;2023-05-25T12:00:23;5.97;;;3.78;;
37655;SDS011;23498;50.958;3.124;2023-05-25T12:02:50;8.15;;;5.07;;
37655;SDS011;23498;50.958;3.124;2023-05-25T12:05:16;7.40;;;4.15;;
37655;SDS011;23498;50.958;3.124;2023-05-25T12:07:43;7.85;;;4.40;;
37655;SDS011;23498;50.958;3.124;2023-05-25T12:10:11;6.35;;;3.47;;
37655;SDS011;23498;50.958;3.124;2023-05-25T12:15:03;8.13;;;4.20;;
37655;SDS011;23498;50.958;3.124;2023-05-25T12:17:29;7.00;;;4.28;;
37655;SDS011;23498;50.958;3.124;2023-05-25T12:19:55;7.20;;;4.43;;
37655;SDS011;23498;50.958;3.124;2023-05-25T12:22:21;7.78;;;4.18;;
37655;SDS011;23498;50.958;3.124;2023-05-25T12:24:48;7.35;;;3.75;;
37655;SDS011;23498;50.958;3.124;2023-05-25T12:27:18;10.85;;;4.07;;
37655;SDS011;23498;50.958;3.124;2023-05-25T12:29:46;7.72;;;3.65;;
37655;SDS011;23498;50.958;3.124;2023-05-25T12:32:13;8.18;;;4.10;;
37655;SDS011;23498;50.958;3.124;2023-05-25T12:34:39;7.47;;;4.50;;
37655;SDS011;23498;50.958;3.124;2023-05-25T12:37:06;6.95;;;4.72;;
37655;SDS011;23498;50.958;3.124;2023-05-25T12:39:42;7.85;;;4.65;;
37655;SDS011;23498;50.958;3.124;2023-05-25T12:42:15;7.43;;;3.97;;
37655;SDS011;23498;50.958;3.124;2023-05-25T12:44:42;6.47;;;4.18;;
37655;SDS011;23498;50.958;3.124;2023-05-25T12:49:37;9.65;;;5.35;;
37655;SDS011;23498;50.958;3.124;2023-05-25T12:52:04;11.75;;;5.05;;
37655;SDS011;23498;50.958;3.124;2023-05-25T12:54:37;11.93;;;4.45;;
37655;SDS011;23498;50.958;3.124;2023-05-25T12:57:05;7.47;;;3.83;;
37655;SDS011;23498;50.958;3.124;2023-05-25T12:59:31;9.35;;;4.10;;
37655;SDS011;23498;50.958;3.124;2023-05-25T13:01:57;8.93;;;4.07;;
37655;SDS011;23498;50.958;3.124;2023-05-25T13:04:24;7.53;;;3.95;;
37655;SDS011;23498;50.958;3.124;2023-05-25T13:06:50;7.05;;;3.63;;
37655;SDS011;23498;50.958;3.124;2023-05-25T13:09:16;9.82;;;4.22;;
37655;SDS011;23498;50.958;3.124;2023-05-25T13:11:42;7.88;;;4.00;;
37655;SDS011;23498;50.958;3.124;2023-05-25T13:14:09;9.30;;;4.25;;
37655;SDS011;23498;50.958;3.124;2023-05-25T13:16:35;8.93;;;4.18;;
37655;SDS011;23498;50.958;3.124;2023-05-25T13:19:01;6.68;;;3.78;;
37655;SDS011;23498;50.958;3.124;2023-05-25T13:21:27;7.25;;;4.20;;
37655;SDS011;23498;50.958;3.124;2023-05-25T13:23:53;7.85;;;4.25;;
37655;SDS011;23498;50.958;3.124;2023-05-25T13:26:19;6.75;;;3.90;;
37655;SDS011;23498;50.958;3.124;2023-05-25T13:28:45;13.93;;;5.80;;
37655;SDS011;23498;50.958;3.124;2023-05-25T13:31:11;10.38;;;5.95;;
37655;SDS011;23498;50.958;3.124;2023-05-25T13:33:37;11.82;;;6.00;;
37655;SDS011;23498;50.958;3.124;2023-05-25T13:36:03;12.05;;;6.47;;
37655;SDS011;23498;50.958;3.124;2023-05-25T13:38:36;12.98;;;6.25;;
37655;SDS011;23498;50.958;3.124;2023-05-25T13:41:02;10.75;;;5.97;;
37655;SDS011;23498;50.958;3.124;2023-05-25T13:43:29;9.73;;;5.80;;
37655;SDS011;23498;50.958;3.124;2023-05-25T13:45:55;12.48;;;6.97;;
37655;SDS011;23498;50.958;3.124;2023-05-25T13:48:23;10.65;;;6.82;;
37655;SDS011;23498;50.958;3.124;2023-05-25T13:50:49;10.82;;;7.20;;
37655;SDS011;23498;50.958;3.124;2023-05-25T13:53:15;13.70;;;6.85;;
37655;SDS011;23498;50.958;3.124;2023-05-25T13:55:41;10.25;;;6.60;;
37655;SDS011;23498;50.958;3.124;2023-05-25T13:58:08;12.48;;;7.00;;
37655;SDS011;23498;50.958;3.124;2023-05-25T14:00:34;12.63;;;7.80;;
37655;SDS011;23498;50.958;3.124;2023-05-25T14:03:00;14.68;;;7.85;;
37655;SDS011;23498;50.958;3.124;2023-05-25T14:05:26;10.55;;;6.82;;
37655;SDS011;23498;50.958;3.124;2023-05-25T14:07:54;13.70;;;6.75;;
37655;SDS011;23498;50.958;3.124;2023-05-25T14:10:20;12.65;;;6.85;;
37655;SDS011;23498;50.958;3.124;2023-05-25T14:12:46;16.05;;;7.82;;
37655;SDS011;23498;50.958;3.124;2023-05-25T14:15:13;12.85;;;7.60;;
37655;SDS011;23498;50.958;3.124;2023-05-25T14:17:39;13.75;;;8.10;;
37655;SDS011;23498;50.958;3.124;2023-05-25T14:20:05;14.95;;;8.20;;
37655;SDS011;23498;50.958;3.124;2023-05-25T14:22:31;15.40;;;7.68;;
37655;SDS011;23498;50.958;3.124;2023-05-25T14:24:57;11.40;;;8.55;;
37655;SDS011;23498;50.958;3.124;2023-05-25T14:27:23;12.50;;;8.30;;
37655;SDS011;23498;50.958;3.124;2023-05-25T14:29:50;14.38;;;8.35;;
37655;SDS011;23498;50.958;3.124;2023-05-25T14:32:16;12.02;;;7.90;;
37655;SDS011;23498;50.958;3.124;2023-05-25T14:34:42;15.25;;;8.38;;
37655;SDS011;23498;50.958;3.124;2023-05-25T14:37:09;12.40;;;7.15;;
37655;SDS011;23498;50.958;3.124;2023-05-25T14:39:35;13.95;;;7.50;;
37655;SDS011;23498;50.958;3.124;2023-05-25T14:42:01;15.32;;;7.68;;
37655;SDS011;23498;50.958;3.124;2023-05-25T14:44:27;15.00;;;7.90;;
37655;SDS011;23498;50.958;3.124;2023-05-25T14:46:53;16.30;;;7.90;;
37655;SDS011;23498;50.958;3.124;2023-05-25T14:49:19;13.52;;;8.20;;
37655;SDS011;23498;50.958;3.124;2023-05-25T14:51:50;16.40;;;8.93;;
37655;SDS011;23498;50.958;3.124;2023-05-25T14:54:16;16.92;;;8.27;;
37655;SDS011;23498;50.958;3.124;2023-05-25T14:56:42;15.30;;;9.15;;